sensor_id;sensor_type;location;lat;lon;timestamp;P1;durP1;ratioP1;P2;durP2;ratioP2
71867;SDS011;59738;48.324;14.230;2022-11-20T00:02:10;69.07;;;25.13;;
71867;SDS011;59738;48.324;14.230;2022-11-20T00:04:38;76.30;;;26.58;;
71867;SDS011;59738;48.324;14.230;2022-11-20T00:07:07;73.82;;;25.55;;
71867;SDS011;59738;48.324;14.230;2022-11-20T00:09:34;49.03;;;18.77;;
71867;SDS011;59738;48.324;14.230;2022-11-20T00:12:03;50.47;;;18.83;;
71867;SDS011;59738;48.324;14.230;2022-11-20T00:14:33;58.83;;;22.60;;
71867;SDS011;59738;48.324;14.230;2022-11-20T00:17:01;49.08;;;19.48;;
71867;SDS011;59738;48.324;14.230;2022-11-20T00:19:28;48.40;;;19.08;;
71867;SDS011;59738;48.324;14.230;2022-11-20T00:21:55;50.03;;;20.55;;
71867;SDS011;59738;48.324;14.230;2022-11-20T00:24:26;45.45;;;17.95;;
71867;SDS011;59738;48.324;14.230;2022-11-20T00:27:04;56.83;;;20.93;;
71867;SDS011;59738;48.324;14.230;2022-11-20T00:29:32;47.40;;;20.17;;
71867;SDS011;59738;48.324;14.230;2022-11-20T00:32:07;39.60;;;16.42;;
71867;SDS011;59738;48.324;14.230;2022-11-20T00:34:35;43.70;;;18.85;;
71867;SDS011;59738;48.324;14.230;2022-11-20T00:37:03;39.55;;;16.88;;
71867;SDS011;59738;48.324;14.230;2022-11-20T00:39:34;46.30;;;17.03;;
71867;SDS011;59738;48.324;14.230;2022-11-20T00:42:10;40.63;;;15.38;;
71867;SDS011;59738;48.324;14.230;2022-11-20T00:44:46;47.72;;;17.63;;
71867;SDS011;59738;48.324;14.230;2022-11-20T00:47:13;51.08;;;19.38;;
71867;SDS011;59738;48.324;14.230;2022-11-20T00:49:46;43.08;;;18.50;;
71867;SDS011;59738;48.324;14.230;2022-11-20T00:52:18;41.13;;;15.90;;
71867;SDS011;59738;48.324;14.230;2022-11-20T00:55:03;35.60;;;14.15;;
71867;SDS011;59738;48.324;14.230;2022-11-20T00:57:34;39.42;;;15.88;;
71867;SDS011;59738;48.324;14.230;2022-11-20T01:00:02;36.45;;;13.77;;
71867;SDS011;59738;48.324;14.230;2022-11-20T01:02:31;42.55;;;17.00;;
71867;SDS011;59738;48.324;14.230;2022-11-20T01:04:58;42.57;;;17.23;;
71867;SDS011;59738;48.324;14.230;2022-11-20T01:07:26;41.00;;;17.13;;
71867;SDS011;59738;48.324;14.230;2022-11-20T01:09:53;41.17;;;15.40;;
71867;SDS011;59738;48.324;14.230;2022-11-20T01:12:22;59.53;;;18.05;;
71867;SDS011;59738;48.324;14.230;2022-11-20T01:14:49;50.88;;;19.20;;
71867;SDS011;59738;48.324;14.230;2022-11-20T01:17:17;45.43;;;16.47;;
71867;SDS011;59738;48.324;14.230;2022-11-20T01:19:44;39.08;;;15.52;;
71867;SDS011;59738;48.324;14.230;2022-11-20T01:22:15;35.80;;;13.55;;
71867;SDS011;59738;48.324;14.230;2022-11-20T01:24:43;40.53;;;15.70;;
71867;SDS011;59738;48.324;14.230;2022-11-20T01:27:10;35.85;;;14.00;;
71867;SDS011;59738;48.324;14.230;2022-11-20T01:29:39;33.23;;;13.93;;
71867;SDS011;59738;48.324;14.230;2022-11-20T01:32:06;38.53;;;14.70;;
71867;SDS011;59738;48.324;14.230;2022-11-20T01:34:34;35.47;;;13.35;;
71867;SDS011;59738;48.324;14.230;2022-11-20T01:37:01;39.63;;;14.95;;
71867;SDS011;59738;48.324;14.230;2022-11-20T01:39:29;34.95;;;14.10;;
71867;SDS011;59738;48.324;14.230;2022-11-20T01:41:56;36.87;;;13.43;;
71867;SDS011;59738;48.324;14.230;2022-11-20T01:44:50;35.97;;;14.18;;
71867;SDS011;59738;48.324;14.230;2022-11-20T01:47:23;26.83;;;11.77;;
71867;SDS011;59738;48.324;14.230;2022-11-20T01:49:58;31.15;;;13.15;;
71867;SDS011;59738;48.324;14.230;2022-11-20T01:52:30;30.50;;;12.65;;
71867;SDS011;59738;48.324;14.230;2022-11-20T01:55:00;34.87;;;13.63;;
71867;SDS011;59738;48.324;14.230;2022-11-20T01:57:29;34.92;;;13.82;;
71867;SDS011;59738;48.324;14.230;2022-11-20T02:00:02;34.95;;;13.25;;
71867;SDS011;59738;48.324;14.230;2022-11-20T02:02:38;36.65;;;14.15;;
71867;SDS011;59738;48.324;14.230;2022-11-20T02:05:10;34.55;;;13.30;;
71867;SDS011;59738;48.324;14.230;2022-11-20T02:07:41;36.60;;;15.23;;
71867;SDS011;59738;48.324;14.230;2022-11-20T02:10:08;34.00;;;14.18;;
71867;SDS011;59738;48.324;14.230;2022-11-20T02:12:36;35.20;;;13.40;;
71867;SDS011;59738;48.324;14.230;2022-11-20T02:15:22;39.15;;;14.52;;
71867;SDS011;59738;48.324;14.230;2022-11-20T02:17:50;35.20;;;14.38;;
71867;SDS011;59738;48.324;14.230;2022-11-20T02:20:17;32.70;;;13.03;;
71867;SDS011;59738;48.324;14.230;2022-11-20T02:22:47;34.10;;;13.00;;
71867;SDS011;59738;48.324;14.230;2022-11-20T02:25:19;37.92;;;14.27;;
71867;SDS011;59738;48.324;14.230;2022-11-20T02:27:47;34.03;;;13.02;;
71867;SDS011;59738;48.324;14.230;2022-11-20T02:30:14;39.13;;;14.98;;
71867;SDS011;59738;48.324;14.230;2022-11-20T02:32:42;38.20;;;14.10;;
71867;SDS011;59738;48.324;14.230;2022-11-20T02:35:35;38.05;;;15.23;;
71867;SDS011;59738;48.324;14.230;2022-11-20T02:38:08;34.90;;;13.43;;
71867;SDS011;59738;48.324;14.230;2022-11-20T02:40:37;35.58;;;12.93;;
71867;SDS011;59738;48.324;14.230;2022-11-20T02:43:04;37.15;;;14.80;;
71867;SDS011;59738;48.324;14.230;2022-11-20T02:45:31;50.23;;;14.97;;
71867;SDS011;59738;48.324;14.230;2022-11-20T02:47:59;56.25;;;15.10;;
71867;SDS011;59738;48.324;14.230;2022-11-20T02:50:27;72.35;;;15.32;;
71867;SDS011;59738;48.324;14.230;2022-11-20T02:52:54;39.95;;;13.48;;
71867;SDS011;59738;48.324;14.230;2022-11-20T02:55:21;35.53;;;14.32;;
71867;SDS011;59738;48.324;14.230;2022-11-20T02:57:50;41.37;;;14.77;;
71867;SDS011;59738;48.324;14.230;2022-11-20T03:00:18;86.65;;;14.18;;
71867;SDS011;59738;48.324;14.230;2022-11-20T03:02:46;86.95;;;16.05;;
71867;SDS011;59738;48.324;14.230;2022-11-20T03:05:13;68.35;;;14.38;;
71867;SDS011;59738;48.324;14.230;2022-11-20T03:07:41;58.88;;;13.90;;
71867;SDS011;59738;48.324;14.230;2022-11-20T03:10:10;53.37;;;14.20;;
71867;SDS011;59738;48.324;14.230;2022-11-20T03:12:38;60.05;;;13.10;;
71867;SDS011;59738;48.324;14.230;2022-11-20T03:15:07;79.10;;;15.70;;
71867;SDS011;59738;48.324;14.230;2022-11-20T03:17:35;85.60;;;16.05;;
71867;SDS011;59738;48.324;14.230;2022-11-20T03:20:03;74.07;;;14.93;;
71867;SDS011;59738;48.324;14.230;2022-11-20T03:22:32;53.43;;;13.77;;
71867;SDS011;59738;48.324;14.230;2022-11-20T03:24:59;80.55;;;14.60;;
71867;SDS011;59738;48.324;14.230;2022-11-20T03:27:27;42.80;;;15.80;;
71867;SDS011;59738;48.324;14.230;2022-11-20T03:29:59;39.78;;;14.13;;
71867;SDS011;59738;48.324;14.230;2022-11-20T03:32:28;45.40;;;15.13;;
71867;SDS011;59738;48.324;14.230;2022-11-20T03:34:55;62.47;;;12.53;;
71867;SDS011;59738;48.324;14.230;2022-11-20T03:37:23;44.78;;;15.43;;
71867;SDS011;59738;48.324;14.230;2022-11-20T03:39:50;58.45;;;15.05;;
71867;SDS011;59738;48.324;14.230;2022-11-20T03:42:18;55.00;;;14.43;;
71867;SDS011;59738;48.324;14.230;2022-11-20T03:45:03;77.40;;;14.32;;
71867;SDS011;59738;48.324;14.230;2022-11-20T03:47:32;45.20;;;13.63;;
71867;SDS011;59738;48.324;14.230;2022-11-20T03:50:00;95.03;;;15.35;;
71867;SDS011;59738;48.324;14.230;2022-11-20T03:52:27;90.18;;;16.25;;
71867;SDS011;59738;48.324;14.230;2022-11-20T03:54:55;83.78;;;14.40;;
71867;SDS011;59738;48.324;14.230;2022-11-20T03:57:22;81.18;;;16.40;;
71867;SDS011;59738;48.324;14.230;2022-11-20T03:59:50;73.03;;;14.80;;
71867;SDS011;59738;48.324;14.230;2022-11-20T04:02:17;77.85;;;16.42;;
71867;SDS011;59738;48.324;14.230;2022-11-20T04:04:46;80.75;;;17.42;;
71867;SDS011;59738;48.324;14.230;2022-11-20T04:07:13;80.05;;;14.52;;
71867;SDS011;59738;48.324;14.230;2022-11-20T04:09:41;126.78;;;18.98;;
71867;SDS011;59738;48.324;14.230;2022-11-20T04:12:08;37.63;;;14.67;;
71867;SDS011;59738;48.324;14.230;2022-11-20T04:14:36;68.10;;;16.45;;
71867;SDS011;59738;48.324;14.230;2022-11-20T04:17:04;74.45;;;15.25;;
71867;SDS011;59738;48.324;14.230;2022-11-20T04:19:31;63.58;;;15.50;;
71867;SDS011;59738;48.324;14.230;2022-11-20T04:22:00;120.40;;;17.90;;
71867;SDS011;59738;48.324;14.230;2022-11-20T04:24:28;73.40;;;16.93;;
71867;SDS011;59738;48.324;14.230;2022-11-20T04:26:55;60.38;;;14.52;;
71867;SDS011;59738;48.324;14.230;2022-11-20T04:29:23;49.50;;;13.50;;
71867;SDS011;59738;48.324;14.230;2022-11-20T04:31:50;70.55;;;15.73;;
71867;SDS011;59738;48.324;14.230;2022-11-20T04:34:18;64.20;;;14.68;;
71867;SDS011;59738;48.324;14.230;2022-11-20T04:36:45;42.60;;;14.53;;
71867;SDS011;59738;48.324;14.230;2022-11-20T04:39:14;47.45;;;14.00;;
71867;SDS011;59738;48.324;14.230;2022-11-20T04:41:42;59.75;;;14.38;;
71867;SDS011;59738;48.324;14.230;2022-11-20T04:44:10;44.15;;;14.55;;
71867;SDS011;59738;48.324;14.230;2022-11-20T04:46:38;39.45;;;12.98;;
71867;SDS011;59738;48.324;14.230;2022-11-20T04:49:06;31.33;;;12.10;;
71867;SDS011;59738;48.324;14.230;2022-11-20T04:51:34;31.70;;;13.27;;
71867;SDS011;59738;48.324;14.230;2022-11-20T04:54:02;28.45;;;11.70;;
71867;SDS011;59738;48.324;14.230;2022-11-20T04:56:31;34.00;;;12.82;;
71867;SDS011;59738;48.324;14.230;2022-11-20T04:58:59;30.52;;;12.85;;
71867;SDS011;59738;48.324;14.230;2022-11-20T05:01:28;26.03;;;11.67;;
71867;SDS011;59738;48.324;14.230;2022-11-20T05:03:55;31.25;;;12.20;;
71867;SDS011;59738;48.324;14.230;2022-11-20T05:06:23;47.10;;;12.45;;
71867;SDS011;59738;48.324;14.230;2022-11-20T05:08:51;38.63;;;12.63;;
71867;SDS011;59738;48.324;14.230;2022-11-20T05:11:19;42.38;;;12.43;;
71867;SDS011;59738;48.324;14.230;2022-11-20T05:13:49;42.87;;;12.30;;
71867;SDS011;59738;48.324;14.230;2022-11-20T05:16:17;34.45;;;10.45;;
71867;SDS011;59738;48.324;14.230;2022-11-20T05:18:47;44.50;;;12.00;;
71867;SDS011;59738;48.324;14.230;2022-11-20T05:21:15;55.00;;;12.07;;
71867;SDS011;59738;48.324;14.230;2022-11-20T05:23:43;66.18;;;11.57;;
71867;SDS011;59738;48.324;14.230;2022-11-20T05:26:13;33.03;;;12.33;;
71867;SDS011;59738;48.324;14.230;2022-11-20T05:28:45;32.95;;;12.23;;
71867;SDS011;59738;48.324;14.230;2022-11-20T05:31:17;46.10;;;12.07;;
71867;SDS011;59738;48.324;14.230;2022-11-20T05:33:46;45.45;;;11.95;;
71867;SDS011;59738;48.324;14.230;2022-11-20T05:36:14;48.45;;;12.38;;
71867;SDS011;59738;48.324;14.230;2022-11-20T05:38:42;45.00;;;10.33;;
71867;SDS011;59738;48.324;14.230;2022-11-20T05:41:10;75.70;;;11.05;;
71867;SDS011;59738;48.324;14.230;2022-11-20T05:43:40;62.83;;;11.65;;
71867;SDS011;59738;48.324;14.230;2022-11-20T05:46:09;41.45;;;10.82;;
71867;SDS011;59738;48.324;14.230;2022-11-20T05:48:43;47.97;;;10.60;;
71867;SDS011;59738;48.324;14.230;2022-11-20T05:51:12;61.30;;;11.47;;
71867;SDS011;59738;48.324;14.230;2022-11-20T05:53:43;46.17;;;11.73;;
71867;SDS011;59738;48.324;14.230;2022-11-20T05:56:13;31.70;;;11.90;;
71867;SDS011;59738;48.324;14.230;2022-11-20T05:58:41;41.15;;;11.38;;
71867;SDS011;59738;48.324;14.230;2022-11-20T06:01:10;33.22;;;12.77;;
71867;SDS011;59738;48.324;14.230;2022-11-20T06:03:38;31.13;;;11.93;;
71867;SDS011;59738;48.324;14.230;2022-11-20T06:06:09;35.30;;;12.48;;
71867;SDS011;59738;48.324;14.230;2022-11-20T06:08:37;28.08;;;11.43;;
71867;SDS011;59738;48.324;14.230;2022-11-20T06:11:05;22.35;;;10.60;;
71867;SDS011;59738;48.324;14.230;2022-11-20T06:13:33;29.85;;;11.50;;
71867;SDS011;59738;48.324;14.230;2022-11-20T06:16:00;23.13;;;10.13;;
71867;SDS011;59738;48.324;14.230;2022-11-20T06:18:28;27.98;;;10.90;;
71867;SDS011;59738;48.324;14.230;2022-11-20T06:21:00;27.10;;;10.43;;
71867;SDS011;59738;48.324;14.230;2022-11-20T06:23:30;26.83;;;11.05;;
71867;SDS011;59738;48.324;14.230;2022-11-20T06:26:00;24.10;;;9.48;;
71867;SDS011;59738;48.324;14.230;2022-11-20T06:28:29;19.70;;;8.17;;
71867;SDS011;59738;48.324;14.230;2022-11-20T06:30:57;20.90;;;9.50;;
71867;SDS011;59738;48.324;14.230;2022-11-20T06:33:25;22.25;;;8.95;;
71867;SDS011;59738;48.324;14.230;2022-11-20T06:35:55;27.27;;;10.80;;
71867;SDS011;59738;48.324;14.230;2022-11-20T06:38:23;26.42;;;10.30;;
71867;SDS011;59738;48.324;14.230;2022-11-20T06:40:52;28.17;;;11.50;;
71867;SDS011;59738;48.324;14.230;2022-11-20T06:43:19;27.30;;;12.00;;
71867;SDS011;59738;48.324;14.230;2022-11-20T06:45:51;28.35;;;10.90;;
71867;SDS011;59738;48.324;14.230;2022-11-20T06:48:21;23.58;;;10.07;;
71867;SDS011;59738;48.324;14.230;2022-11-20T06:50:49;24.23;;;10.35;;
71867;SDS011;59738;48.324;14.230;2022-11-20T06:53:18;22.90;;;10.07;;
71867;SDS011;59738;48.324;14.230;2022-11-20T06:55:46;17.70;;;8.40;;
71867;SDS011;59738;48.324;14.230;2022-11-20T06:58:16;19.95;;;8.90;;
71867;SDS011;59738;48.324;14.230;2022-11-20T07:00:44;18.15;;;8.85;;
71867;SDS011;59738;48.324;14.230;2022-11-20T07:03:11;19.77;;;8.00;;
71867;SDS011;59738;48.324;14.230;2022-11-20T07:05:39;18.57;;;7.60;;
71867;SDS011;59738;48.324;14.230;2022-11-20T07:08:07;19.00;;;7.10;;
71867;SDS011;59738;48.324;14.230;2022-11-20T07:10:35;16.02;;;7.50;;
71867;SDS011;59738;48.324;14.230;2022-11-20T07:13:02;16.40;;;6.95;;
71867;SDS011;59738;48.324;14.230;2022-11-20T07:15:31;14.75;;;7.20;;
71867;SDS011;59738;48.324;14.230;2022-11-20T07:17:59;14.13;;;6.87;;
71867;SDS011;59738;48.324;14.230;2022-11-20T07:20:27;13.30;;;6.88;;
71867;SDS011;59738;48.324;14.230;2022-11-20T07:22:55;19.33;;;8.25;;
71867;SDS011;59738;48.324;14.230;2022-11-20T07:25:23;15.68;;;8.15;;
71867;SDS011;59738;48.324;14.230;2022-11-20T07:27:51;17.58;;;7.30;;
71867;SDS011;59738;48.324;14.230;2022-11-20T07:30:18;27.93;;;9.67;;
71867;SDS011;59738;48.324;14.230;2022-11-20T07:32:50;43.70;;;9.40;;
71867;SDS011;59738;48.324;14.230;2022-11-20T07:35:18;64.20;;;12.32;;
71867;SDS011;59738;48.324;14.230;2022-11-20T07:37:48;77.05;;;13.55;;
71867;SDS011;59738;48.324;14.230;2022-11-20T07:40:16;89.88;;;13.40;;
71867;SDS011;59738;48.324;14.230;2022-11-20T07:42:47;56.43;;;10.97;;
71867;SDS011;59738;48.324;14.230;2022-11-20T07:45:15;31.52;;;11.40;;
71867;SDS011;59738;48.324;14.230;2022-11-20T07:47:42;72.18;;;10.63;;
71867;SDS011;59738;48.324;14.230;2022-11-20T07:50:11;98.28;;;12.18;;
71867;SDS011;59738;48.324;14.230;2022-11-20T07:52:39;69.07;;;11.10;;
71867;SDS011;59738;48.324;14.230;2022-11-20T07:55:07;66.83;;;12.37;;
71867;SDS011;59738;48.324;14.230;2022-11-20T07:57:37;102.05;;;15.65;;
71867;SDS011;59738;48.324;14.230;2022-11-20T08:00:05;85.88;;;15.15;;
71867;SDS011;59738;48.324;14.230;2022-11-20T08:02:40;81.57;;;15.65;;
71867;SDS011;59738;48.324;14.230;2022-11-20T08:05:08;95.45;;;13.07;;
71867;SDS011;59738;48.324;14.230;2022-11-20T08:07:37;62.20;;;11.43;;
71867;SDS011;59738;48.324;14.230;2022-11-20T08:10:06;69.70;;;14.07;;
71867;SDS011;59738;48.324;14.230;2022-11-20T08:12:34;80.55;;;13.95;;
71867;SDS011;59738;48.324;14.230;2022-11-20T08:15:19;105.20;;;14.13;;
71867;SDS011;59738;48.324;14.230;2022-11-20T08:17:47;100.40;;;12.35;;
71867;SDS011;59738;48.324;14.230;2022-11-20T08:20:15;56.47;;;11.57;;
71867;SDS011;59738;48.324;14.230;2022-11-20T08:22:44;47.42;;;11.02;;
71867;SDS011;59738;48.324;14.230;2022-11-20T08:25:13;55.08;;;13.68;;
71867;SDS011;59738;48.324;14.230;2022-11-20T08:27:41;55.97;;;12.65;;
71867;SDS011;59738;48.324;14.230;2022-11-20T08:30:13;60.97;;;12.52;;
71867;SDS011;59738;48.324;14.230;2022-11-20T08:32:40;44.73;;;13.83;;
71867;SDS011;59738;48.324;14.230;2022-11-20T08:35:08;43.08;;;13.48;;
71867;SDS011;59738;48.324;14.230;2022-11-20T08:37:38;36.92;;;13.50;;
71867;SDS011;59738;48.324;14.230;2022-11-20T08:40:11;31.85;;;11.63;;
71867;SDS011;59738;48.324;14.230;2022-11-20T08:42:45;36.08;;;13.48;;
71867;SDS011;59738;48.324;14.230;2022-11-20T08:45:14;35.23;;;12.37;;
71867;SDS011;59738;48.324;14.230;2022-11-20T08:47:42;27.52;;;11.27;;
71867;SDS011;59738;48.324;14.230;2022-11-20T08:50:11;31.75;;;12.40;;
71867;SDS011;59738;48.324;14.230;2022-11-20T08:52:39;28.77;;;11.35;;
71867;SDS011;59738;48.324;14.230;2022-11-20T08:55:08;26.95;;;11.00;;
71867;SDS011;59738;48.324;14.230;2022-11-20T08:57:37;21.80;;;8.97;;
71867;SDS011;59738;48.324;14.230;2022-11-20T09:00:07;22.75;;;8.40;;
71867;SDS011;59738;48.324;14.230;2022-11-20T09:02:37;18.25;;;8.43;;
71867;SDS011;59738;48.324;14.230;2022-11-20T09:05:05;20.25;;;7.60;;
71867;SDS011;59738;48.324;14.230;2022-11-20T09:07:33;15.52;;;7.47;;
71867;SDS011;59738;48.324;14.230;2022-11-20T09:10:02;18.77;;;8.20;;
71867;SDS011;59738;48.324;14.230;2022-11-20T09:12:31;15.93;;;7.38;;
71867;SDS011;59738;48.324;14.230;2022-11-20T09:15:00;16.90;;;7.70;;
71867;SDS011;59738;48.324;14.230;2022-11-20T09:17:27;16.65;;;8.23;;
71867;SDS011;59738;48.324;14.230;2022-11-20T09:19:55;19.27;;;8.77;;
71867;SDS011;59738;48.324;14.230;2022-11-20T09:22:23;39.97;;;17.27;;
71867;SDS011;59738;48.324;14.230;2022-11-20T09:24:52;40.47;;;16.85;;
71867;SDS011;59738;48.324;14.230;2022-11-20T09:27:19;62.78;;;24.35;;
71867;SDS011;59738;48.324;14.230;2022-11-20T09:29:48;62.67;;;22.90;;
71867;SDS011;59738;48.324;14.230;2022-11-20T09:32:18;63.67;;;22.65;;
71867;SDS011;59738;48.324;14.230;2022-11-20T09:34:45;75.30;;;23.67;;
71867;SDS011;59738;48.324;14.230;2022-11-20T09:37:16;68.90;;;22.42;;
71867;SDS011;59738;48.324;14.230;2022-11-20T09:39:45;67.13;;;22.40;;
71867;SDS011;59738;48.324;14.230;2022-11-20T09:42:23;72.45;;;24.38;;
71867;SDS011;59738;48.324;14.230;2022-11-20T09:45:00;56.70;;;19.25;;
71867;SDS011;59738;48.324;14.230;2022-11-20T09:47:35;60.40;;;19.40;;
71867;SDS011;59738;48.324;14.230;2022-11-20T09:50:20;49.70;;;18.67;;
71867;SDS011;59738;48.324;14.230;2022-11-20T09:52:55;43.88;;;17.00;;
71867;SDS011;59738;48.324;14.230;2022-11-20T09:55:43;35.05;;;14.85;;
71867;SDS011;59738;48.324;14.230;2022-11-20T09:58:15;28.30;;;12.73;;
71867;SDS011;59738;48.324;14.230;2022-11-20T10:00:46;22.57;;;10.70;;
71867;SDS011;59738;48.324;14.230;2022-11-20T10:03:19;29.50;;;11.07;;
71867;SDS011;59738;48.324;14.230;2022-11-20T10:05:51;26.00;;;12.20;;
71867;SDS011;59738;48.324;14.230;2022-11-20T10:08:21;44.55;;;11.65;;
71867;SDS011;59738;48.324;14.230;2022-11-20T10:10:52;30.30;;;12.30;;
71867;SDS011;59738;48.324;14.230;2022-11-20T10:13:26;29.47;;;11.97;;
71867;SDS011;59738;48.324;14.230;2022-11-20T10:16:03;26.48;;;12.10;;
71867;SDS011;59738;48.324;14.230;2022-11-20T10:18:44;31.23;;;13.20;;
71867;SDS011;59738;48.324;14.230;2022-11-20T10:21:23;28.70;;;11.82;;
71867;SDS011;59738;48.324;14.230;2022-11-20T10:24:02;31.10;;;13.05;;
71867;SDS011;59738;48.324;14.230;2022-11-20T10:26:47;36.87;;;14.60;;
71867;SDS011;59738;48.324;14.230;2022-11-20T10:29:23;37.25;;;16.02;;
71867;SDS011;59738;48.324;14.230;2022-11-20T10:31:59;33.83;;;15.05;;
71867;SDS011;59738;48.324;14.230;2022-11-20T10:34:31;32.42;;;13.98;;
71867;SDS011;59738;48.324;14.230;2022-11-20T10:37:02;25.40;;;12.65;;
71867;SDS011;59738;48.324;14.230;2022-11-20T10:39:33;22.37;;;11.17;;
71867;SDS011;59738;48.324;14.230;2022-11-20T10:42:04;20.27;;;10.30;;
71867;SDS011;59738;48.324;14.230;2022-11-20T10:44:36;23.90;;;12.05;;
71867;SDS011;59738;48.324;14.230;2022-11-20T10:47:25;20.95;;;10.68;;
71867;SDS011;59738;48.324;14.230;2022-11-20T10:49:55;26.83;;;11.95;;
71867;SDS011;59738;48.324;14.230;2022-11-20T10:52:26;23.33;;;11.60;;
71867;SDS011;59738;48.324;14.230;2022-11-20T10:55:01;19.10;;;10.27;;
71867;SDS011;59738;48.324;14.230;2022-11-20T10:57:41;17.77;;;9.20;;
71867;SDS011;59738;48.324;14.230;2022-11-20T11:00:18;20.48;;;9.50;;
71867;SDS011;59738;48.324;14.230;2022-11-20T11:02:46;18.35;;;9.45;;
71867;SDS011;59738;48.324;14.230;2022-11-20T11:05:31;18.80;;;9.40;;
71867;SDS011;59738;48.324;14.230;2022-11-20T11:08:04;16.63;;;8.52;;
71867;SDS011;59738;48.324;14.230;2022-11-20T11:10:39;18.30;;;9.45;;
71867;SDS011;59738;48.324;14.230;2022-11-20T11:13:20;17.90;;;8.68;;
71867;SDS011;59738;48.324;14.230;2022-11-20T11:15:52;19.20;;;8.20;;
71867;SDS011;59738;48.324;14.230;2022-11-20T11:18:26;18.23;;;8.83;;
71867;SDS011;59738;48.324;14.230;2022-11-20T11:20:57;15.27;;;7.80;;
71867;SDS011;59738;48.324;14.230;2022-11-20T11:23:30;17.58;;;8.65;;
71867;SDS011;59738;48.324;14.230;2022-11-20T11:26:00;16.67;;;8.77;;
71867;SDS011;59738;48.324;14.230;2022-11-20T11:31:29;15.97;;;8.17;;
71867;SDS011;59738;48.324;14.230;2022-11-20T11:34:04;19.58;;;8.73;;
71867;SDS011;59738;48.324;14.230;2022-11-20T11:36:34;18.33;;;9.27;;
71867;SDS011;59738;48.324;14.230;2022-11-20T11:39:02;20.23;;;9.35;;
71867;SDS011;59738;48.324;14.230;2022-11-20T11:41:31;19.08;;;9.52;;
71867;SDS011;59738;48.324;14.230;2022-11-20T11:44:01;23.50;;;11.13;;
71867;SDS011;59738;48.324;14.230;2022-11-20T11:46:58;21.00;;;10.82;;
71867;SDS011;59738;48.324;14.230;2022-11-20T11:49:31;24.55;;;11.40;;
71867;SDS011;59738;48.324;14.230;2022-11-20T11:52:05;24.67;;;12.38;;
71867;SDS011;59738;48.324;14.230;2022-11-20T11:54:38;25.00;;;11.18;;
71867;SDS011;59738;48.324;14.230;2022-11-20T11:57:12;21.80;;;10.63;;
71867;SDS011;59738;48.324;14.230;2022-11-20T11:59:54;27.95;;;12.15;;
71867;SDS011;59738;48.324;14.230;2022-11-20T12:02:36;29.50;;;12.70;;
71867;SDS011;59738;48.324;14.230;2022-11-20T12:05:10;26.75;;;12.38;;
71867;SDS011;59738;48.324;14.230;2022-11-20T12:07:46;27.75;;;12.40;;
71867;SDS011;59738;48.324;14.230;2022-11-20T12:10:20;29.30;;;11.90;;
71867;SDS011;59738;48.324;14.230;2022-11-20T12:12:53;24.85;;;11.40;;
71867;SDS011;59738;48.324;14.230;2022-11-20T12:15:28;29.95;;;12.57;;
71867;SDS011;59738;48.324;14.230;2022-11-20T12:17:57;28.52;;;13.35;;
71867;SDS011;59738;48.324;14.230;2022-11-20T12:20:29;32.17;;;13.85;;
71867;SDS011;59738;48.324;14.230;2022-11-20T12:23:01;24.57;;;12.03;;
71867;SDS011;59738;48.324;14.230;2022-11-20T12:28:44;24.98;;;12.02;;
71867;SDS011;59738;48.324;14.230;2022-11-20T12:37:08;25.50;;;11.77;;
71867;SDS011;59738;48.324;14.230;2022-11-20T12:39:49;27.10;;;12.23;;
71867;SDS011;59738;48.324;14.230;2022-11-20T12:42:30;26.92;;;12.15;;
71867;SDS011;59738;48.324;14.230;2022-11-20T12:48:42;23.77;;;10.77;;
71867;SDS011;59738;48.324;14.230;2022-11-20T12:51:23;26.70;;;11.17;;
71867;SDS011;59738;48.324;14.230;2022-11-20T12:54:20;18.13;;;9.38;;
71867;SDS011;59738;48.324;14.230;2022-11-20T12:56:56;22.70;;;10.13;;
71867;SDS011;59738;48.324;14.230;2022-11-20T12:59:33;20.85;;;9.55;;
71867;SDS011;59738;48.324;14.230;2022-11-20T13:02:15;21.63;;;9.68;;
71867;SDS011;59738;48.324;14.230;2022-11-20T13:04:54;28.47;;;13.50;;
71867;SDS011;59738;48.324;14.230;2022-11-20T13:07:28;31.75;;;13.50;;
71867;SDS011;59738;48.324;14.230;2022-11-20T13:10:00;29.95;;;14.30;;
71867;SDS011;59738;48.324;14.230;2022-11-20T13:12:36;29.08;;;15.25;;
71867;SDS011;59738;48.324;14.230;2022-11-20T13:15:23;29.85;;;13.20;;
71867;SDS011;59738;48.324;14.230;2022-11-20T13:18:00;32.73;;;13.47;;
71867;SDS011;59738;48.324;14.230;2022-11-20T13:20:29;26.77;;;12.35;;
71867;SDS011;59738;48.324;14.230;2022-11-20T13:22:59;26.40;;;13.65;;
71867;SDS011;59738;48.324;14.230;2022-11-20T13:25:30;33.45;;;14.30;;
71867;SDS011;59738;48.324;14.230;2022-11-20T13:28:04;31.52;;;15.65;;
71867;SDS011;59738;48.324;14.230;2022-11-20T13:30:32;35.40;;;15.20;;
71867;SDS011;59738;48.324;14.230;2022-11-20T13:33:02;34.00;;;15.65;;
71867;SDS011;59738;48.324;14.230;2022-11-20T13:35:34;34.33;;;15.95;;
71867;SDS011;59738;48.324;14.230;2022-11-20T13:38:07;37.15;;;15.13;;
71867;SDS011;59738;48.324;14.230;2022-11-20T13:40:36;31.80;;;14.63;;
71867;SDS011;59738;48.324;14.230;2022-11-20T13:43:14;31.43;;;14.83;;
71867;SDS011;59738;48.324;14.230;2022-11-20T13:45:56;30.05;;;13.00;;
71867;SDS011;59738;48.324;14.230;2022-11-20T13:48:29;26.80;;;12.13;;
71867;SDS011;59738;48.324;14.230;2022-11-20T13:51:07;24.30;;;11.35;;
71867;SDS011;59738;48.324;14.230;2022-11-20T13:53:47;37.25;;;17.40;;
71867;SDS011;59738;48.324;14.230;2022-11-20T13:56:29;44.23;;;17.63;;
71867;SDS011;59738;48.324;14.230;2022-11-20T13:59:06;46.00;;;18.77;;
71867;SDS011;59738;48.324;14.230;2022-11-20T14:01:45;42.75;;;19.25;;
71867;SDS011;59738;48.324;14.230;2022-11-20T14:04:14;42.42;;;18.60;;
71867;SDS011;59738;48.324;14.230;2022-11-20T14:06:53;44.83;;;18.55;;
71867;SDS011;59738;48.324;14.230;2022-11-20T14:09:27;40.53;;;17.97;;
71867;SDS011;59738;48.324;14.230;2022-11-20T14:11:56;59.35;;;18.70;;
71867;SDS011;59738;48.324;14.230;2022-11-20T14:14:27;44.00;;;18.25;;
71867;SDS011;59738;48.324;14.230;2022-11-20T14:17:05;48.00;;;19.20;;
71867;SDS011;59738;48.324;14.230;2022-11-20T14:19:33;50.05;;;20.13;;
71867;SDS011;59738;48.324;14.230;2022-11-20T14:22:16;42.63;;;18.73;;
71867;SDS011;59738;48.324;14.230;2022-11-20T14:24:45;44.85;;;18.42;;
71867;SDS011;59738;48.324;14.230;2022-11-20T14:27:14;43.25;;;18.98;;
71867;SDS011;59738;48.324;14.230;2022-11-20T14:29:47;43.42;;;17.83;;
71867;SDS011;59738;48.324;14.230;2022-11-20T14:32:17;43.58;;;18.30;;
71867;SDS011;59738;48.324;14.230;2022-11-20T14:34:46;42.07;;;18.60;;
71867;SDS011;59738;48.324;14.230;2022-11-20T14:37:17;44.65;;;19.63;;
71867;SDS011;59738;48.324;14.230;2022-11-20T14:39:48;43.88;;;19.48;;
71867;SDS011;59738;48.324;14.230;2022-11-20T14:42:17;44.15;;;17.80;;
71867;SDS011;59738;48.324;14.230;2022-11-20T14:44:47;43.03;;;17.65;;
71867;SDS011;59738;48.324;14.230;2022-11-20T14:47:17;55.87;;;22.27;;
71867;SDS011;59738;48.324;14.230;2022-11-20T14:49:48;46.00;;;19.58;;